Asian Empire — 3FQF8 — position and weather

sailwx.info

Track history (hours):
 
Tides and Currents Weather Stations Pressure Air Temp Water Temp Dewpoint Dewpoint Depression Visibility Wind Speed Wind Dir Waves Ship Positions

Asian Empire

Last reported at 2013-Dec-22 22:28 UTC. Time now 2014-Oct-20 09:56 UTC.
Position N 31°19' E 121°41'.
Warning: this ship's position is months out of date.

Length 229 m; draft 8.2 m.

Type: Cargo ship. MMSI: 245087096.

Date/timePositionNaut miles runAvg speedWind from/ knotsBaromVisibWave heightAir tempDewpointWater temp
2013-Dec-22 22:28N 31°19' E 121°41'0 0.0
2013-Dec-22 21:16N 31°19' E 121°41'0 0.0
2013-Dec-22 19:10N 31°19' E 121°41'0 0.1
2013-Dec-22 18:32N 31°19' E 121°41'1 1.4
2013-Dec-22 17:33N 31°20' E 121°42'  
2013-Dec-19 11:33N 24°30' E 119°21'31813.8
2013-Dec-18 12:34N 22°19' E 114°06'1 0.2
2013-Dec-18 05:26N 22°20' E 114°07'10 7.7
2013-Dec-18 04:08N 22°11' E 114°12'23 0.6
2013-Dec-16 11:33N 22°16' E 113°48'1313.1
2013-Dec-16 10:32N 22°29' E 113°45'1312.9
2013-Dec-16 09:31N 22°42' E 113°41'1111.1
2013-Dec-16 08:33N 22°51' E 113°34'1010.1
2013-Dec-16 07:30N 23°01' E 113°32'0 0.3
2013-Dec-16 06:22N 23°01' E 113°32'0 0.0
2013-Dec-16 05:28N 23°01' E 113°32'0 0.0
2013-Dec-16 04:28N 23°01' E 113°32'0 0.0
2013-Dec-16 03:28N 23°01' E 113°32'0 0.0
2013-Dec-16 02:28N 23°01' E 113°32'0 0.0
2013-Dec-16 01:28N 23°01' E 113°32'0 0.0
2013-Dec-16 00:28N 23°01' E 113°32'0 0.0
2013-Dec-15 23:22N 23°01' E 113°32'0 0.0
2013-Dec-15 22:28N 23°01' E 113°32'0 0.0
2013-Dec-15 21:28N 23°01' E 113°32'0 0.0
2013-Dec-15 20:28N 23°01' E 113°32'0 0.0
2013-Dec-15 19:28N 23°01' E 113°32'0 0.0
2013-Dec-15 18:28N 23°01' E 113°32'0 0.3
2013-Dec-15 17:33N 23°01' E 113°32'9 8.6
2013-Dec-15 16:33N 22°52' E 113°34'1210.4
2013-Dec-15 15:23N 22°42' E 113°41'1512.7
2013-Dec-15 14:14N 22°28' E 113°45'1014.1
2013-Dec-15 13:32N 22°19' E 113°48'  
Track history (hours):
 
Tides and Currents Weather Stations Pressure Air Temp Water Temp Dewpoint Dewpoint Depression Visibility Wind Speed Wind Dir Waves Ship Positions

Asian Empire

Last reported at 2013-Dec-22 22:28 UTC. Time now 2014-Oct-20 09:56 UTC.
Position N 31°19' E 121°41'.
Warning: this ship's position is months out of date.

Length 229 m; draft 8.2 m.

Type: Cargo ship. MMSI: 245087096.

Date/timePositionNaut miles runAvg speedWind from/ knotsBaromVisibWave heightAir tempDewpointWater temp
2013-Dec-22 22:28N 31°19' E 121°41'0 0.0
2013-Dec-22 21:16N 31°19' E 121°41'0 0.0
2013-Dec-22 19:10N 31°19' E 121°41'0 0.1
2013-Dec-22 18:32N 31°19' E 121°41'1 1.4
2013-Dec-22 17:33N 31°20' E 121°42'  
2013-Dec-19 11:33N 24°30' E 119°21'31813.8
2013-Dec-18 12:34N 22°19' E 114°06'1 0.2
2013-Dec-18 05:26N 22°20' E 114°07'10 7.7
2013-Dec-18 04:08N 22°11' E 114°12'23 0.6
2013-Dec-16 11:33N 22°16' E 113°48'1313.1
2013-Dec-16 10:32N 22°29' E 113°45'1312.9
2013-Dec-16 09:31N 22°42' E 113°41'1111.1
2013-Dec-16 08:33N 22°51' E 113°34'1010.1
2013-Dec-16 07:30N 23°01' E 113°32'0 0.3
2013-Dec-16 06:22N 23°01' E 113°32'0 0.0
2013-Dec-16 05:28N 23°01' E 113°32'0 0.0
2013-Dec-16 04:28N 23°01' E 113°32'0 0.0
2013-Dec-16 03:28N 23°01' E 113°32'0 0.0
2013-Dec-16 02:28N 23°01' E 113°32'0 0.0
2013-Dec-16 01:28N 23°01' E 113°32'0 0.0
2013-Dec-16 00:28N 23°01' E 113°32'0 0.0
2013-Dec-15 23:22N 23°01' E 113°32'0 0.0
2013-Dec-15 22:28N 23°01' E 113°32'0 0.0
2013-Dec-15 21:28N 23°01' E 113°32'0 0.0
2013-Dec-15 20:28N 23°01' E 113°32'0 0.0
2013-Dec-15 19:28N 23°01' E 113°32'0 0.0
2013-Dec-15 18:28N 23°01' E 113°32'0 0.3
2013-Dec-15 17:33N 23°01' E 113°32'9 8.6
2013-Dec-15 16:33N 22°52' E 113°34'1210.4
2013-Dec-15 15:23N 22°42' E 113°41'1512.7
2013-Dec-15 14:14N 22°28' E 113°45'1014.1
2013-Dec-15 13:32N 22°19' E 113°48'  

Dump ship's entire track history